Time;durP1;ratioP1;P1;durP2;ratioP2;P2;SDS_P1;SDS_P2;PMS_P1;PMS_P2;Temp;Humidity;BMP_temperature;BMP_pressure;BME280_temperature;BME280_humidity;BME280_pressure;Samples;Min_cycle;Max_cycle;Signal;HPM_P1;HPM_P2
2021/07/22 00:00:45;;;;;;;10.60;6.95;;;19.20;97.10;;;;;;4974362;28;20133;-81
2021/07/22 00:03:12;;;;;;;10.40;6.80;;;19.10;97.10;;;;;;4971219;28;20134;-81
2021/07/22 00:05:39;;;;;;;8.77;6.18;;;19.00;97.30;;;;;;4964610;29;20138;-81
2021/07/22 00:08:11;;;;;;;8.93;5.63;;;19.00;97.60;;;;;;4971283;29;20043;-80
2021/07/22 00:10:38;;;;;;;10.27;6.30;;;18.90;97.90;;;;;;4977413;28;20126;-80
2021/07/22 00:13:06;;;;;;;9.15;6.15;;;19.00;98.00;;;;;;4986241;28;20046;-81
2021/07/22 00:15:34;;;;;;;10.43;6.60;;;19.00;98.10;;;;;;4946816;28;20089;-80
2021/07/22 00:18:03;;;;;;;12.50;6.45;;;19.00;98.00;;;;;;4977357;28;20052;-81
2021/07/22 00:20:31;;;;;;;10.32;6.15;;;19.00;98.00;;;;;;4956409;28;20043;-80
2021/07/22 00:22:58;;;;;;;8.65;5.82;;;19.00;97.90;;;;;;4956655;29;20114;-81
2021/07/22 00:25:26;;;;;;;11.13;6.55;;;19.00;97.90;;;;;;4956305;29;20053;-78
2021/07/22 00:27:53;;;;;;;9.18;5.90;;;19.00;98.10;;;;;;4956272;29;20050;-81
2021/07/22 00:30:20;;;;;;;12.70;7.18;;;18.90;98.10;;;;;;4960315;28;20129;-81
2021/07/22 00:32:47;;;;;;;9.02;6.30;;;18.90;98.00;;;;;;4975685;28;20090;-80
2021/07/22 00:35:15;;;;;;;10.82;6.75;;;18.90;97.90;;;;;;4975024;28;20129;-82
2021/07/22 00:37:42;;;;;;;11.95;6.55;;;18.80;97.90;;;;;;4974413;28;20523;-81
2021/07/22 00:40:10;;;;;;;11.20;6.43;;;18.70;97.90;;;;;;4978089;28;20085;-82
2021/07/22 00:42:59;;;;;;;9.20;5.78;;;18.70;98.20;;;;;;4965242;28;20099;-81
2021/07/22 00:45:27;;;;;;;9.70;6.22;;;18.60;98.50;;;;;;4976679;28;20137;-81
2021/07/22 00:47:55;;;;;;;10.10;6.22;;;18.60;98.10;;;;;;4984670;28;20077;-82
2021/07/22 00:50:22;;;;;;;9.82;6.20;;;18.50;98.10;;;;;;4984106;28;20380;-82
2021/07/22 00:52:49;;;;;;;9.35;6.30;;;18.50;98.20;;;;;;4994388;28;20070;-82
2021/07/22 00:55:19;;;;;;;9.40;6.53;;;18.40;98.40;;;;;;4982966;28;20039;-82
2021/07/22 00:57:46;;;;;;;10.38;6.18;;;18.40;98.70;;;;;;4983545;28;20062;-82
2021/07/22 01:00:16;;;;;;;10.27;6.68;;;18.40;98.80;;;;;;4965473;28;20070;-82
2021/07/22 01:02:43;;;;;;;9.48;6.53;;;18.40;98.70;;;;;;4984613;28;20078;-82
2021/07/22 01:05:11;;;;;;;10.50;6.20;;;18.40;98.60;;;;;;4984400;28;20070;-84
2021/07/22 01:07:38;;;;;;;8.82;5.57;;;18.40;98.80;;;;;;4985388;28;20098;-82
2021/07/22 01:10:07;;;;;;;9.35;6.13;;;18.40;99.00;;;;;;4970482;28;20067;-82
2021/07/22 01:12:35;;;;;;;9.70;6.50;;;18.40;98.80;;;;;;4956504;29;20413;-81
2021/07/22 01:15:02;;;;;;;10.80;6.45;;;18.30;98.50;;;;;;4953955;29;20051;-82
2021/07/22 01:17:41;;;;;;;9.50;6.13;;;18.30;98.50;;;;;;4955752;29;20477;-83
2021/07/22 01:20:13;;;;;;;10.50;5.90;;;18.20;98.70;;;;;;4969747;28;20126;-83
2021/07/22 01:22:41;;;;;;;9.65;6.43;;;18.20;99.00;;;;;;4973723;28;20093;-83
2021/07/22 01:25:09;;;;;;;9.45;6.15;;;18.20;98.90;;;;;;4987588;28;20074;-82
2021/07/22 01:27:36;;;;;;;10.70;6.60;;;18.10;98.70;;;;;;4969629;28;20075;-82
2021/07/22 01:30:05;;;;;;;9.68;6.57;;;18.10;98.70;;;;;;4969944;28;20062;-83
2021/07/22 01:32:32;;;;;;;10.07;6.18;;;18.00;98.80;;;;;;4985285;28;20074;-82
2021/07/22 01:34:59;;;;;;;9.45;5.63;;;18.00;99.00;;;;;;4977079;28;20481;-81
2021/07/22 01:37:27;;;;;;;10.60;6.05;;;18.00;99.20;;;;;;4970451;29;20063;-81
2021/07/22 01:39:56;;;;;;;8.80;5.93;;;17.90;99.50;;;;;;4969812;28;20094;-81
2021/07/22 01:42:23;;;;;;;9.40;6.32;;;18.00;99.60;;;;;;4987729;28;20057;-82
2021/07/22 01:44:50;;;;;;;10.10;6.55;;;17.90;99.60;;;;;;4989314;28;20082;-82
2021/07/22 01:47:18;;;;;;;11.65;6.55;;;18.00;99.60;;;;;;4989194;28;20103;-82
2021/07/22 01:49:45;;;;;;;11.40;6.68;;;18.00;99.50;;;;;;4990330;28;20047;-82
2021/07/22 01:52:12;;;;;;;8.85;6.43;;;18.10;99.40;;;;;;4988758;28;20074;-82
2021/07/22 01:54:40;;;;;;;9.48;6.60;;;18.10;99.30;;;;;;4995890;28;20046;-82
2021/07/22 01:57:07;;;;;;;9.95;6.82;;;18.00;99.10;;;;;;5003099;28;20027;-83
2021/07/22 01:59:37;;;;;;;9.50;6.78;;;18.00;99.00;;;;;;5001762;28;20058;-82
2021/07/22 02:02:05;;;;;;;10.30;6.35;;;17.90;99.10;;;;;;4985502;28;20090;-82
2021/07/22 02:04:33;;;;;;;9.75;6.03;;;17.80;99.30;;;;;;4960431;29;20051;-81
2021/07/22 02:07:00;;;;;;;9.52;6.35;;;17.80;99.50;;;;;;4961738;28;20122;-83
2021/07/22 02:09:28;;;;;;;10.02;6.53;;;17.80;99.60;;;;;;4967792;28;20102;-81
2021/07/22 02:11:58;;;;;;;9.30;5.78;;;17.80;99.60;;;;;;4969095;29;20107;-83
2021/07/22 02:14:27;;;;;;;9.00;5.90;;;17.80;99.70;;;;;;4968195;28;20103;-82
2021/07/22 02:16:54;;;;;;;10.75;6.80;;;17.90;99.50;;;;;;4971500;28;20129;-81
2021/07/22 02:19:22;;;;;;;10.00;6.65;;;17.90;99.50;;;;;;4958410;29;20134;-80
2021/07/22 02:21:49;;;;;;;10.48;6.32;;;17.80;99.30;;;;;;4974863;28;20396;-80
2021/07/22 02:24:16;;;;;;;10.32;6.65;;;17.80;99.30;;;;;;4974495;28;20119;-79
2021/07/22 02:26:43;;;;;;;8.23;5.78;;;17.80;99.40;;;;;;4957466;29;20126;-80
2021/07/22 02:29:12;;;;;;;9.02;6.10;;;17.80;99.60;;;;;;4959041;28;20514;-80
2021/07/22 02:31:39;;;;;;;9.25;5.72;;;17.80;99.60;;;;;;4973996;28;20053;-80
2021/07/22 02:34:06;;;;;;;8.88;5.78;;;17.80;99.70;;;;;;4987089;28;20105;-81
2021/07/22 02:36:33;;;;;;;9.65;6.45;;;17.80;99.60;;;;;;4981319;28;20560;-80
2021/07/22 02:39:01;;;;;;;11.32;7.00;;;17.80;99.30;;;;;;4979322;28;20137;-80
2021/07/22 02:41:29;;;;;;;9.95;6.55;;;17.70;99.00;;;;;;4963195;28;20133;-79
2021/07/22 02:43:57;;;;;;;9.85;6.03;;;17.70;98.90;;;;;;4957697;29;20055;-80
2021/07/22 02:46:26;;;;;;;10.00;6.63;;;17.50;99.00;;;;;;4957375;29;20077;-80
2021/07/22 02:48:56;;;;;;;9.55;6.15;;;17.50;99.30;;;;;;4967442;28;20046;-80
2021/07/22 02:51:23;;;;;;;9.82;5.63;;;17.50;99.60;;;;;;4964438;28;20047;-79
2021/07/22 02:53:50;;;;;;;9.48;6.38;;;17.40;99.70;;;;;;4957561;29;20086;-81
2021/07/22 02:56:17;;;;;;;10.48;6.78;;;17.40;99.60;;;;;;4957275;29;20409;-80
2021/07/22 02:58:44;;;;;;;8.93;5.90;;;17.30;99.50;;;;;;4956945;28;20138;-80
2021/07/22 03:01:12;;;;;;;10.15;6.40;;;17.30;99.80;;;;;;4967100;28;20046;-80
2021/07/22 03:03:40;;;;;;;10.10;6.57;;;17.30;99.90;;;;;;4962526;28;20043;-80
2021/07/22 03:06:07;;;;;;;11.23;6.70;;;17.30;99.90;;;;;;4974533;28;20042;-80
2021/07/22 03:08:35;;;;;;;9.40;6.38;;;17.30;99.90;;;;;;4973247;28;20061;-80
2021/07/22 03:11:02;;;;;;;12.55;6.82;;;17.30;99.90;;;;;;4965004;28;20051;-80
2021/07/22 03:13:30;;;;;;;10.85;6.65;;;17.30;99.90;;;;;;4954530;29;20075;-79
2021/07/22 03:15:57;;;;;;;11.63;6.72;;;17.30;99.90;;;;;;4971767;28;20401;-81
2021/07/22 03:18:24;;;;;;;10.40;6.90;;;17.30;99.90;;;;;;4974004;28;20082;-80
2021/07/22 03:20:52;;;;;;;9.60;6.22;;;17.40;99.90;;;;;;4967386;28;20134;-80
2021/07/22 03:23:19;;;;;;;10.88;6.63;;;17.40;99.90;;;;;;4958463;28;20055;-80
2021/07/22 03:25:47;;;;;;;8.77;6.03;;;17.40;99.90;;;;;;4954188;29;20047;-80
2021/07/22 03:28:14;;;;;;;10.55;6.85;;;17.40;99.90;;;;;;4954153;29;20047;-80
2021/07/22 03:30:42;;;;;;;11.15;7.07;;;17.50;99.90;;;;;;4958804;28;20492;-79
2021/07/22 03:33:09;;;;;;;10.02;6.82;;;17.50;99.90;;;;;;4973169;28;20417;-79
2021/07/22 03:35:37;;;;;;;10.93;6.63;;;17.50;99.80;;;;;;4973050;28;20077;-79
2021/07/22 03:38:05;;;;;;;10.60;7.32;;;17.40;99.70;;;;;;4972995;28;20054;-80
2021/07/22 03:40:33;;;;;;;10.10;6.90;;;17.40;99.70;;;;;;4958996;28;20039;-81
2021/07/22 03:43:01;;;;;;;10.05;7.10;;;17.40;99.80;;;;;;4965136;28;20140;-81
2021/07/22 03:45:29;;;;;;;12.27;6.53;;;17.30;99.70;;;;;;4953007;29;20095;-82
2021/07/22 03:48:00;;;;;;;10.57;6.60;;;17.30;99.70;;;;;;4953837;28;20126;-81
2021/07/22 03:50:28;;;;;;;11.38;6.60;;;17.30;99.90;;;;;;4956635;28;20050;-81
2021/07/22 03:52:56;;;;;;;11.95;7.15;;;17.30;99.90;;;;;;4972483;28;20130;-81
2021/07/22 03:55:25;;;;;;;9.68;6.60;;;17.30;99.80;;;;;;4972312;28;20053;-83
2021/07/22 03:57:52;;;;;;;10.85;6.78;;;17.20;99.60;;;;;;4973008;28;20420;-81
2021/07/22 04:00:20;;;;;;;10.85;6.93;;;17.20;99.60;;;;;;4970964;28;20501;-80
2021/07/22 04:02:47;;;;;;;11.23;7.03;;;17.10;99.70;;;;;;4955068;29;20134;-80
2021/07/22 04:05:14;;;;;;;10.60;6.70;;;17.10;99.90;;;;;;4967891;28;20086;-80
2021/07/22 04:07:41;;;;;;;10.75;6.72;;;17.00;99.80;;;;;;4975023;28;20134;-80
2021/07/22 04:10:10;;;;;;;11.20;7.18;;;17.00;99.90;;;;;;4956730;28;20126;-81
2021/07/22 04:12:38;;;;;;;9.93;6.68;;;16.90;99.90;;;;;;4956068;28;20082;-80
2021/07/22 04:15:07;;;;;;;9.75;6.55;;;16.90;99.90;;;;;;4956048;29;20081;-83
2021/07/22 04:17:34;;;;;;;11.35;6.70;;;16.90;99.90;;;;;;4955965;28;20051;-80
2021/07/22 04:20:03;;;;;;;11.02;7.15;;;16.90;99.90;;;;;;4955499;29;20047;-80
2021/07/22 04:22:30;;;;;;;10.63;6.70;;;17.00;99.90;;;;;;4973866;28;20054;-81
2021/07/22 04:24:57;;;;;;;11.50;7.07;;;17.00;99.90;;;;;;4980154;28;20107;-82
2021/07/22 04:27:27;;;;;;;11.43;7.32;;;17.00;99.90;;;;;;4983471;28;20515;-81
2021/07/22 04:29:59;;;;;;;10.65;6.70;;;17.00;99.90;;;;;;4968907;28;20130;-81
2021/07/22 04:32:26;;;;;;;10.60;6.35;;;17.00;99.90;;;;;;4972405;28;20043;-79
2021/07/22 04:34:53;;;;;;;10.93;6.82;;;17.10;99.90;;;;;;4974408;28;20057;-80
2021/07/22 04:37:20;;;;;;;10.82;7.10;;;17.10;99.90;;;;;;4975033;28;20133;-80
2021/07/22 04:39:47;;;;;;;9.35;6.43;;;17.20;99.90;;;;;;4974846;28;20082;-80
2021/07/22 04:42:14;;;;;;;11.25;7.20;;;17.20;99.90;;;;;;4974624;28;20089;-80
2021/07/22 04:44:41;;;;;;;10.15;6.88;;;17.30;99.90;;;;;;4974532;28;20153;-80
2021/07/22 04:47:09;;;;;;;11.32;7.00;;;17.30;99.90;;;;;;4974790;28;20133;-80
2021/07/22 04:49:36;;;;;;;10.88;6.68;;;17.40;99.90;;;;;;4974288;28;20489;-80
2021/07/22 04:52:04;;;;;;;10.52;6.60;;;17.40;99.90;;;;;;4974584;28;20054;-80
2021/07/22 04:54:31;;;;;;;10.98;7.05;;;17.40;99.90;;;;;;4974469;28;20130;-80
2021/07/22 04:56:58;;;;;;;9.73;6.60;;;17.50;99.90;;;;;;4974607;28;20051;-80
2021/07/22 04:59:26;;;;;;;11.02;7.30;;;17.50;99.90;;;;;;4974631;28;20137;-79
2021/07/22 05:01:53;;;;;;;10.75;6.78;;;17.50;99.90;;;;;;4975537;28;20146;-79
2021/07/22 05:04:21;;;;;;;10.48;7.25;;;17.50;99.90;;;;;;4974463;28;20134;-80
2021/07/22 05:06:48;;;;;;;11.10;7.45;;;17.50;99.90;;;;;;4974853;28;20078;-80
2021/07/22 05:09:15;;;;;;;12.00;7.10;;;17.50;99.90;;;;;;4974786;28;20072;-80
2021/07/22 05:11:42;;;;;;;11.40;7.20;;;17.40;99.90;;;;;;4974846;28;20145;-80
2021/07/22 05:14:09;;;;;;;9.70;6.68;;;17.40;99.90;;;;;;4974394;28;20055;-80
2021/07/22 05:16:36;;;;;;;11.63;7.20;;;17.40;99.90;;;;;;4974176;28;20138;-80
2021/07/22 05:19:03;;;;;;;12.55;7.55;;;17.50;99.90;;;;;;4974649;28;20500;-79
2021/07/22 05:21:31;;;;;;;12.10;7.85;;;17.50;99.90;;;;;;4976733;28;20552;-80
2021/07/22 05:23:58;;;;;;;11.65;7.55;;;17.50;99.90;;;;;;4986989;28;20058;-81
2021/07/22 05:26:25;;;;;;;12.15;7.90;;;17.60;99.90;;;;;;4987831;28;20192;-80
2021/07/22 05:28:54;;;;;;;10.70;7.40;;;17.60;99.90;;;;;;4987820;28;20070;-81
2021/07/22 05:31:21;;;;;;;11.85;7.18;;;17.60;99.90;;;;;;4987054;28;20093;-80
2021/07/22 05:33:48;;;;;;;11.48;7.90;;;17.60;99.90;;;;;;4978785;28;20129;-81
2021/07/22 05:36:15;;;;;;;14.88;8.43;;;17.50;99.90;;;;;;4978293;28;20050;-79
2021/07/22 05:38:59;;;;;;;10.90;7.57;;;17.50;99.90;;;;;;4978088;28;20057;-80
2021/07/22 05:41:26;;;;;;;12.50;8.52;;;17.50;99.90;;;;;;4978167;28;20106;-79
2021/07/22 05:43:54;;;;;;;11.57;7.75;;;17.50;99.90;;;;;;4977952;28;20061;-80
2021/07/22 05:46:21;;;;;;;14.77;7.95;;;17.50;99.90;;;;;;4978130;28;20141;-80
2021/07/22 05:48:49;;;;;;;11.00;7.82;;;17.50;99.90;;;;;;4977780;28;20051;-79
2021/07/22 05:51:16;;;;;;;11.25;7.55;;;17.50;99.90;;;;;;4979226;28;20493;-80
2021/07/22 05:53:45;;;;;;;11.98;7.50;;;17.50;99.90;;;;;;4986361;28;20101;-80
2021/07/22 05:56:17;;;;;;;10.25;7.25;;;17.50;99.90;;;;;;4977749;28;20147;-79
2021/07/22 05:58:44;;;;;;;12.07;7.63;;;17.60;99.90;;;;;;4978040;28;20047;-80
2021/07/22 06:01:12;;;;;;;11.40;7.90;;;17.60;99.90;;;;;;4977584;28;20050;-81
2021/07/22 06:03:39;;;;;;;11.65;7.22;;;17.60;99.90;;;;;;4977716;28;20050;-80
2021/07/22 06:06:07;;;;;;;10.43;7.18;;;17.80;99.90;;;;;;4977800;28;20078;-81
2021/07/22 06:08:35;;;;;;;10.40;6.80;;;17.70;99.90;;;;;;4977721;28;20058;-79
2021/07/22 06:11:07;;;;;;;10.32;7.00;;;17.80;99.90;;;;;;4977030;28;20487;-80
2021/07/22 06:13:34;;;;;;;10.35;7.07;;;17.90;99.90;;;;;;4977589;28;20078;-81
2021/07/22 06:16:02;;;;;;;10.85;6.65;;;18.00;99.90;;;;;;4975855;28;20057;-80
2021/07/22 06:18:29;;;;;;;11.80;6.78;;;18.00;99.90;;;;;;4977657;28;20047;-80
2021/07/22 06:20:57;;;;;;;11.18;7.43;;;18.20;99.90;;;;;;4978028;28;20141;-80
2021/07/22 06:23:24;;;;;;;10.95;6.57;;;18.20;99.90;;;;;;4985461;28;20051;-81
2021/07/22 06:25:56;;;;;;;12.15;6.65;;;18.20;99.90;;;;;;4977596;28;20089;-81
2021/07/22 06:28:25;;;;;;;11.65;6.80;;;18.30;99.90;;;;;;4977226;28;20129;-80
2021/07/22 06:30:52;;;;;;;9.98;6.35;;;18.30;99.90;;;;;;4976756;28;20557;-78
2021/07/22 06:33:19;;;;;;;9.70;6.93;;;18.30;99.90;;;;;;4976621;28;20046;-77
2021/07/22 06:35:46;;;;;;;10.13;5.93;;;18.40;99.90;;;;;;4976996;28;20139;-78
2021/07/22 06:38:14;;;;;;;10.45;6.68;;;18.40;99.90;;;;;;4977034;28;20126;-77
2021/07/22 06:40:41;;;;;;;12.43;7.32;;;18.50;99.90;;;;;;4976854;28;20061;-77
2021/07/22 06:43:09;;;;;;;12.63;7.25;;;18.60;99.90;;;;;;4976893;28;20134;-78
2021/07/22 06:45:38;;;;;;;10.50;7.03;;;18.60;99.90;;;;;;4977993;28;20137;-76
2021/07/22 06:48:05;;;;;;;12.27;7.32;;;18.60;99.90;;;;;;4976609;28;20085;-77
2021/07/22 06:50:33;;;;;;;11.20;7.28;;;18.60;99.90;;;;;;4976688;28;20130;-77
2021/07/22 06:53:03;;;;;;;8.98;6.75;;;18.60;99.90;;;;;;4976925;28;20572;-77
2021/07/22 06:55:30;;;;;;;8.77;6.40;;;18.60;99.90;;;;;;4976690;28;20061;-78
2021/07/22 06:57:57;;;;;;;11.38;6.85;;;18.70;99.90;;;;;;4976705;28;20053;-77
2021/07/22 07:00:24;;;;;;;10.52;6.90;;;18.70;99.90;;;;;;4976144;28;20130;-76
2021/07/22 07:02:53;;;;;;;10.30;6.63;;;18.80;99.90;;;;;;4976317;28;20050;-76
2021/07/22 07:05:20;;;;;;;9.82;6.97;;;18.90;99.90;;;;;;4976606;28;20480;-75
2021/07/22 07:07:47;;;;;;;9.82;6.38;;;19.00;99.80;;;;;;4976550;28;20053;-77
2021/07/22 07:10:14;;;;;;;13.73;8.32;;;19.10;99.90;;;;;;4976390;28;20042;-77
2021/07/22 07:12:41;;;;;;;11.77;7.30;;;19.20;99.50;;;;;;4976330;28;20146;-77
2021/07/22 07:15:09;;;;;;;12.45;7.80;;;19.30;99.40;;;;;;4975975;28;20560;-76
2021/07/22 07:17:36;;;;;;;11.70;7.88;;;19.30;99.30;;;;;;4976075;28;20225;-77
2021/07/22 07:20:06;;;;;;;10.60;7.25;;;19.30;99.20;;;;;;4976147;28;20146;-76
2021/07/22 07:22:33;;;;;;;12.85;8.18;;;19.20;99.30;;;;;;4976219;28;20419;-76
2021/07/22 07:25:00;;;;;;;10.45;7.03;;;19.20;99.20;;;;;;4976292;28;20065;-77
2021/07/22 07:27:27;;;;;;;12.93;7.28;;;19.20;99.20;;;;;;4976282;28;20126;-77
2021/07/22 07:29:54;;;;;;;13.07;7.30;;;19.30;99.20;;;;;;4976270;28;20083;-78
2021/07/22 07:32:21;;;;;;;11.43;6.95;;;19.30;99.20;;;;;;4976248;28;20126;-77
2021/07/22 07:34:48;;;;;;;10.50;6.65;;;19.40;99.20;;;;;;4975503;28;20053;-76
2021/07/22 07:37:16;;;;;;;12.52;6.70;;;19.40;99.50;;;;;;4976243;28;20043;-76
2021/07/22 07:39:43;;;;;;;10.98;7.22;;;19.50;99.00;;;;;;4975645;28;20471;-76
2021/07/22 07:42:10;;;;;;;11.75;6.88;;;19.60;98.80;;;;;;4975578;28;20053;-77
2021/07/22 07:44:37;;;;;;;8.00;5.43;;;19.60;98.80;;;;;;4974294;28;20077;-77
2021/07/22 07:47:04;;;;;;;9.27;5.93;;;19.70;98.90;;;;;;4975623;28;20053;-77
2021/07/22 07:49:31;;;;;;;9.73;5.93;;;19.80;98.70;;;;;;4976375;28;20499;-77
2021/07/22 07:51:58;;;;;;;8.18;6.00;;;19.90;98.80;;;;;;4976818;28;20576;-77
2021/07/22 07:54:27;;;;;;;9.70;6.25;;;20.00;98.40;;;;;;4976892;28;20150;-77
2021/07/22 07:56:54;;;;;;;9.80;6.60;;;20.20;98.60;;;;;;4975607;28;20057;-77
2021/07/22 07:59:21;;;;;;;9.65;6.13;;;20.40;98.10;;;;;;4975528;28;20385;-76
2021/07/22 08:01:49;;;;;;;9.55;6.30;;;20.70;97.90;;;;;;4975601;28;20138;-75
2021/07/22 08:04:16;;;;;;;9.02;5.95;;;20.80;96.90;;;;;;4983589;28;20062;-76
2021/07/22 08:06:43;;;;;;;9.00;5.80;;;20.90;96.50;;;;;;4969730;28;20079;-75
2021/07/22 08:09:10;;;;;;;8.35;5.78;;;20.90;95.90;;;;;;4969161;28;20378;-75
2021/07/22 08:11:38;;;;;;;8.63;6.10;;;20.90;95.10;;;;;;4972764;28;20134;-76
2021/07/22 08:14:05;;;;;;;9.50;6.05;;;21.00;94.90;;;;;;4957480;28;20484;-75
2021/07/22 08:16:32;;;;;;;10.82;6.20;;;21.00;94.50;;;;;;4955059;28;20053;-74
2021/07/22 08:18:59;;;;;;;8.88;5.90;;;21.00;94.40;;;;;;4961735;28;20115;-75
2021/07/22 08:21:26;;;;;;;10.82;6.43;;;21.00;94.40;;;;;;4966520;28;20111;-77
2021/07/22 08:23:55;;;;;;;9.23;5.70;;;21.10;94.50;;;;;;4963754;28;20133;-76
2021/07/22 08:26:22;;;;;;;7.72;5.47;;;21.10;94.70;;;;;;4960467;28;20082;-76
2021/07/22 08:28:50;;;;;;;8.10;5.50;;;21.20;94.70;;;;;;4963166;28;20282;-74
2021/07/22 08:31:19;;;;;;;9.35;5.57;;;21.20;94.60;;;;;;4956188;28;20120;-74
2021/07/22 08:33:46;;;;;;;9.23;5.88;;;21.30;94.50;;;;;;4961484;28;20043;-76
2021/07/22 08:36:13;;;;;;;8.38;5.30;;;21.30;94.50;;;;;;4961066;28;20090;-76
2021/07/22 08:38:40;;;;;;;8.80;5.88;;;21.40;94.40;;;;;;4961274;28;20143;-76
2021/07/22 08:41:08;;;;;;;8.20;5.38;;;21.50;94.40;;;;;;4953760;28;20071;-76
2021/07/22 08:43:39;;;;;;;7.88;5.45;;;21.60;94.20;;;;;;4958643;28;20054;-77
2021/07/22 08:46:07;;;;;;;11.68;7.38;;;21.60;94.10;;;;;;4972015;28;20161;-75
2021/07/22 08:48:37;;;;;;;8.95;6.00;;;21.70;93.80;;;;;;4972306;28;20057;-76
2021/07/22 08:51:04;;;;;;;7.90;5.60;;;21.70;93.90;;;;;;4971758;28;20053;-76
2021/07/22 08:53:32;;;;;;;10.73;6.45;;;21.70;93.90;;;;;;4972350;28;20051;-77
2021/07/22 08:56:00;;;;;;;10.02;6.50;;;21.80;93.70;;;;;;4971695;28;20057;-76
2021/07/22 08:58:28;;;;;;;10.05;6.72;;;21.80;93.60;;;;;;4969736;28;20126;-76
2021/07/22 09:00:57;;;;;;;10.88;7.30;;;21.90;93.60;;;;;;4971989;28;20050;-76
2021/07/22 09:03:25;;;;;;;10.55;6.80;;;21.90;93.30;;;;;;4972129;28;20082;-76
2021/07/22 09:05:52;;;;;;;9.13;5.70;;;22.00;93.40;;;;;;4971553;28;20047;-76
2021/07/22 09:08:19;;;;;;;10.50;6.88;;;22.00;93.50;;;;;;4971499;28;20484;-76
2021/07/22 09:11:06;;;;;;;10.48;6.80;;;22.00;93.40;;;;;;4971610;28;20150;-75
2021/07/22 09:13:33;;;;;;;11.02;7.53;;;22.10;93.20;;;;;;4970272;28;20058;-76
2021/07/22 09:16:00;;;;;;;12.30;6.65;;;22.20;93.40;;;;;;4971611;28;20114;-76
2021/07/22 09:18:31;;;;;;;9.27;6.07;;;22.20;93.40;;;;;;4971377;28;20129;-74
2021/07/22 09:20:58;;;;;;;9.18;5.82;;;22.20;93.30;;;;;;4971509;28;20051;-78
2021/07/22 09:23:27;;;;;;;8.35;5.53;;;22.30;93.20;;;;;;4971591;28;20051;-78
2021/07/22 09:25:56;;;;;;;10.00;6.35;;;22.40;93.10;;;;;;4971932;28;20050;-78
2021/07/22 09:28:25;;;;;;;9.88;6.80;;;22.40;92.60;;;;;;4969965;28;20108;-77
2021/07/22 09:30:59;;;;;;;10.40;5.93;;;22.50;92.10;;;;;;4971640;28;20055;-78
2021/07/22 09:33:36;;;;;;;9.90;6.20;;;22.50;91.90;;;;;;4971866;28;20131;-76
2021/07/22 09:36:04;;;;;;;9.63;6.20;;;22.60;91.70;;;;;;4971852;28;20055;-76
2021/07/22 09:38:31;;;;;;;7.90;5.00;;;22.60;91.30;;;;;;4971314;28;20511;-73
2021/07/22 09:40:58;;;;;;;6.75;4.68;;;22.70;91.30;;;;;;4971594;28;20516;-75
2021/07/22 09:43:38;;;;;;;9.65;5.35;;;22.80;91.60;;;;;;4969704;28;20050;-76
2021/07/22 09:46:05;;;;;;;7.78;5.05;;;22.80;91.10;;;;;;4976717;28;20058;-77
2021/07/22 09:48:34;;;;;;;8.50;5.20;;;23.00;90.90;;;;;;4975739;28;20465;-76
2021/07/22 09:51:01;;;;;;;8.82;5.15;;;23.00;90.70;;;;;;4971337;28;20166;-78
2021/07/22 09:53:29;;;;;;;8.25;5.18;;;23.10;90.20;;;;;;4971769;28;20481;-75
2021/07/22 09:55:57;;;;;;;8.90;5.00;;;23.10;88.80;;;;;;4971490;28;20053;-75
2021/07/22 09:58:24;;;;;;;8.40;4.80;;;23.20;87.20;;;;;;4970219;28;20093;-76
2021/07/22 10:00:53;;;;;;;8.88;5.63;;;23.30;86.10;;;;;;4971305;28;20059;-75
2021/07/22 10:03:21;;;;;;;7.68;4.93;;;23.30;84.60;;;;;;4970876;28;20050;-76
2021/07/22 10:05:53;;;;;;;7.07;4.90;;;23.40;85.20;;;;;;4971327;28;20455;-75
2021/07/22 10:08:23;;;;;;;8.05;5.55;;;23.50;85.10;;;;;;4972850;28;20463;-75
2021/07/22 10:10:52;;;;;;;6.75;5.07;;;23.50;83.50;;;;;;4974964;28;20058;-75
2021/07/22 10:13:27;;;;;;;7.72;5.32;;;23.50;82.30;;;;;;4974060;28;20051;-76
2021/07/22 10:15:57;;;;;;;7.68;4.93;;;23.60;82.00;;;;;;4974928;28;20133;-74
2021/07/22 10:18:27;;;;;;;7.07;4.40;;;23.70;81.50;;;;;;4974321;28;20046;-73
2021/07/22 10:20:59;;;;;;;7.78;4.78;;;23.70;81.90;;;;;;4974493;28;20077;-76
2021/07/22 10:23:26;;;;;;;8.10;5.47;;;23.80;81.50;;;;;;4974574;28;20047;-76
2021/07/22 10:25:53;;;;;;;6.22;4.45;;;23.80;81.10;;;;;;4974540;28;20051;-76
2021/07/22 10:28:21;;;;;;;7.03;4.75;;;23.90;81.40;;;;;;4972803;28;20412;-75
2021/07/22 10:30:49;;;;;;;8.75;5.53;;;24.00;81.20;;;;;;4974345;28;20049;-75
2021/07/22 10:33:20;;;;;;;6.78;4.32;;;24.00;80.30;;;;;;4974950;28;20130;-75
2021/07/22 10:35:51;;;;;;;6.70;4.40;;;24.10;80.10;;;;;;4975934;28;20043;-75
2021/07/22 10:38:23;;;;;;;6.85;4.38;;;24.20;81.00;;;;;;4981397;28;20136;-76
2021/07/22 10:40:55;;;;;;;8.95;5.40;;;24.20;80.50;;;;;;4978472;28;20098;-80
2021/07/22 10:43:42;;;;;;;7.85;4.88;;;24.20;78.90;;;;;;4963616;28;20043;-80
2021/07/22 10:46:12;;;;;;;6.25;4.18;;;24.20;77.60;;;;;;4968115;28;20106;-80
2021/07/22 10:48:40;;;;;;;6.07;4.30;;;24.20;76.60;;;;;;4982724;28;20078;-80
2021/07/22 10:51:12;;;;;;;5.85;3.63;;;24.10;75.90;;;;;;4983564;28;20141;-80
2021/07/22 10:53:47;;;;;;;7.90;5.43;;;24.20;76.60;;;;;;4983871;28;20107;-79
2021/07/22 10:56:42;;;;;;;6.43;4.63;;;24.10;76.20;;;;;;4984192;28;20051;-78
2021/07/22 10:59:09;;;;;;;6.68;4.15;;;24.20;76.40;;;;;;4984839;28;20077;-83
2021/07/22 11:01:54;;;;;;;6.07;3.97;;;24.20;76.80;;;;;;4971788;28;20038;-78
2021/07/22 11:04:45;;;;;;;7.40;4.30;;;24.20;76.10;;;;;;4971909;28;20391;-80
2021/07/22 11:07:28;;;;;;;8.38;4.47;;;24.30;75.30;;;;;;4972170;28;20478;-79
2021/07/22 11:09:58;;;;;;;6.65;4.57;;;24.30;75.10;;;;;;4972527;28;20581;-78
2021/07/22 11:12:47;;;;;;;6.57;4.50;;;24.30;75.20;;;;;;4972310;28;20050;-79
2021/07/22 11:16:02;;;;;;;6.43;4.35;;;24.40;74.70;;;;;;4971599;28;20058;-79
2021/07/22 11:18:49;;;;;;;6.45;4.25;;;24.40;74.50;;;;;;4970279;28;20043;-79
2021/07/22 11:21:20;;;;;;;7.20;4.68;;;24.40;74.60;;;;;;4972256;28;20049;-77
2021/07/22 11:24:00;;;;;;;6.22;4.60;;;24.50;74.00;;;;;;4972743;28;20089;-79
2021/07/22 11:26:31;;;;;;;7.85;4.25;;;24.50;74.10;;;;;;4971295;28;20050;-80
2021/07/22 11:28:59;;;;;;;5.50;3.75;;;24.60;74.80;;;;;;4972998;28;20142;-79
2021/07/22 11:31:30;;;;;;;5.85;3.90;;;24.70;74.70;;;;;;4972687;28;20130;-80
2021/07/22 11:34:02;;;;;;;5.80;3.72;;;24.80;74.20;;;;;;4957026;28;20043;-79
2021/07/22 11:36:31;;;;;;;6.10;3.70;;;24.90;74.40;;;;;;4953017;28;20059;-79
2021/07/22 11:38:59;;;;;;;7.68;5.43;;;25.00;74.20;;;;;;4953061;28;20567;-80
2021/07/22 11:41:27;;;;;;;8.52;5.15;;;25.10;72.90;;;;;;4952932;28;20058;-80
2021/07/22 11:43:57;;;;;;;6.07;4.50;;;25.20;72.30;;;;;;4953035;28;20138;-79
2021/07/22 11:46:41;;;;;;;5.38;3.55;;;25.30;72.30;;;;;;4953250;28;20065;-78
2021/07/22 11:49:11;;;;;;;5.50;3.67;;;25.40;72.40;;;;;;4953858;28;20565;-79
2021/07/22 11:51:40;;;;;;;5.05;3.50;;;25.50;73.20;;;;;;4952915;28;20051;-78
2021/07/22 11:54:07;;;;;;;5.68;3.65;;;25.70;74.10;;;;;;4952591;28;20130;-80
2021/07/22 11:56:37;;;;;;;5.68;3.58;;;25.80;74.00;;;;;;4952684;28;20413;-80
2021/07/22 11:59:07;;;;;;;6.85;3.92;;;25.90;73.50;;;;;;4952697;28;20082;-79
2021/07/22 12:01:35;;;;;;;7.68;4.88;;;26.00;72.90;;;;;;4953684;28;20055;-80
2021/07/22 12:04:03;;;;;;;6.13;4.15;;;26.10;71.80;;;;;;4952771;28;20134;-80
2021/07/22 12:06:31;;;;;;;6.03;4.03;;;26.20;72.10;;;;;;4952294;28;20493;-80
2021/07/22 12:09:03;;;;;;;6.47;4.45;;;26.30;71.60;;;;;;4952583;28;20098;-78
2021/07/22 12:11:30;;;;;;;6.35;4.53;;;26.30;70.30;;;;;;4952854;28;20465;-80
2021/07/22 12:13:59;;;;;;;6.53;4.50;;;26.50;70.10;;;;;;4952780;28;20051;-79
2021/07/22 12:16:27;;;;;;;8.80;5.75;;;26.50;68.80;;;;;;4953517;28;20105;-76
2021/07/22 12:18:55;;;;;;;7.30;5.03;;;26.50;68.30;;;;;;4952164;28;20051;-81
2021/07/22 12:21:24;;;;;;;7.00;4.53;;;26.60;68.70;;;;;;4952478;28;20556;-80
2021/07/22 12:23:52;;;;;;;6.15;4.15;;;26.70;69.30;;;;;;4952438;28;20146;-82
2021/07/22 12:26:20;;;;;;;6.47;4.07;;;26.70;69.30;;;;;;4951992;28;20577;-83
2021/07/22 12:29:01;;;;;;;7.15;4.50;;;26.80;69.40;;;;;;4951330;29;20050;-85
2021/07/22 12:31:39;;;;;;;7.20;4.90;;;26.90;69.60;;;;;;4952956;28;20126;-85
2021/07/22 12:34:09;;;;;;;6.85;4.40;;;27.00;69.10;;;;;;4952385;28;20146;-86
2021/07/22 12:36:37;;;;;;;8.40;5.25;;;27.10;69.50;;;;;;4952429;28;20079;-85
2021/07/22 12:39:18;;;;;;;7.28;4.47;;;27.10;69.10;;;;;;4952237;28;20073;-84
2021/07/22 12:41:47;;;;;;;6.25;4.28;;;27.20;69.10;;;;;;4952211;28;20061;-84
2021/07/22 12:44:49;;;;;;;8.05;5.70;;;27.30;68.90;;;;;;4951725;28;20059;-84
2021/07/22 12:47:27;;;;;;;7.63;5.25;;;27.40;68.40;;;;;;4952960;28;20054;-85
2021/07/22 12:49:54;;;;;;;7.28;4.82;;;27.40;67.60;;;;;;4951969;28;20490;-84
2021/07/22 12:52:22;;;;;;;8.70;6.20;;;27.50;67.60;;;;;;4971634;28;20078;-84